»·PEaware :: ECADR KSNA-KSMO

ECADR :: KSNA-KSMO

FLIGHT INFORMATION

Flight Status: Arrived
Operator: Unknown
More flights by this operator :: More flights under this callsign
Pilot: Adrián R. (20842)
Aircraft: BEECH AIRCRAFT DEBONAIR BONANZA
(BE33)
More flights by this aircraft type
Origin: KSNA John Wayne-Orange Co
United States
Destination: KSMO Santa Monica Mun
United States
More flights between these airports :: More routes between these airports
Route: SLI V8 POXKU V363 BAYJY V186 DARTS
File this flight plan on PilotEdge
Remarks: TEC ROUTE CSTP9 - I4 RATING ATTEMPT
Altitude:
(Current/Filed)
6,000ft
Speed:
(Current/Filed)
160kts
Departed: 04-Nov-18 10:23 AM
Arrived: 04-Nov-18 10:55 AM
Distance/Time
Traveled:
36nm/0:32
Distance/Time
To Go:
Arrived

Flight Plot

Page will automatically refresh every two minutes.


Map Options




Map Legend


Flown Route
Filed Route
Departure Airport
Arrival Airport
Navaid (VOR, NDB)
Fix

Horizontal Profiles

Position Reports

Time Latitude Longitude Heading Altitude Ground
Speed
04-Nov-18 10:05 33.672222 -117.873699 206 59ft 0kts
04-Nov-18 10:06 33.672222 -117.873699 206 59ft 0kts
04-Nov-18 10:07 33.672222 -117.873699 206 59ft 0kts
04-Nov-18 10:08 33.672222 -117.873699 206 59ft 0kts
04-Nov-18 10:09 33.672222 -117.873699 206 59ft 0kts
04-Nov-18 10:10 33.672222 -117.873699 206 59ft 0kts
04-Nov-18 10:11 33.672222 -117.873699 206 59ft 0kts
04-Nov-18 10:12 33.672222 -117.873699 206 59ft 0kts
04-Nov-18 10:13 33.672222 -117.873699 206 59ft 0kts
04-Nov-18 10:14 33.672222 -117.873699 206 59ft 0kts
04-Nov-18 10:15 33.672222 -117.873699 206 59ft 0kts
04-Nov-18 10:16 33.672222 -117.873699 206 59ft 0kts
04-Nov-18 10:17 33.673355 -117.871801 27 59ft 19kts
04-Nov-18 10:18 33.677330 -117.868972 75 59ft 12kts
04-Nov-18 10:19 33.677625 -117.868668 202 59ft 0kts
04-Nov-18 10:20 33.677625 -117.868668 202 59ft 0kts
04-Nov-18 10:21 33.677625 -117.868668 202 59ft 0kts
04-Nov-18 10:22 33.678162 -117.868751 27 59ft 11kts
04-Nov-18 10:23 33.681276 -117.866418 120 59ft 0kts
04-Nov-18 10:24 33.681276 -117.866418 120 59ft 0kts
04-Nov-18 10:25 33.680557 -117.865746 205 59ft 0kts
04-Nov-18 10:26 33.663399 -117.882675 238 1183ft 96kts
04-Nov-18 10:27 33.647101 -117.917459 240 1989ft 148kts
04-Nov-18 10:28 33.627538 -117.960004 240 2861ft 115kts
04-Nov-18 10:29 33.622777 -117.992243 322 4069ft 104kts
04-Nov-18 10:30 33.644268 -117.977146 38 5183ft 100kts
04-Nov-18 10:31 33.665164 -117.954225 38 6008ft 118kts
04-Nov-18 10:32 33.694219 -117.923062 38 6002ft 152kts
04-Nov-18 10:33 33.726625 -117.888531 38 6000ft 158kts
04-Nov-18 10:34 33.759636 -117.854184 37 5999ft 159kts
04-Nov-18 10:35 33.793790 -117.820416 36 5998ft 159kts
04-Nov-18 10:36 33.830044 -117.790481 27 5999ft 158kts
04-Nov-18 10:37 33.872204 -117.782747 357 5999ft 156kts
04-Nov-18 10:38 33.915743 -117.783682 358 5996ft 156kts
04-Nov-18 10:39 33.959037 -117.784594 358 6001ft 156kts
04-Nov-18 10:40 34.002478 -117.787142 334 5988ft 157kts
04-Nov-18 10:41 34.022258 -117.834064 293 6003ft 160kts
04-Nov-18 10:42 34.037896 -117.884443 292 6004ft 160kts
04-Nov-18 10:43 34.053501 -117.935037 292 6004ft 161kts
04-Nov-18 10:44 34.069041 -117.985503 292 6004ft 161kts
04-Nov-18 10:45 34.084599 -118.036117 292 6002ft 161kts
04-Nov-18 10:46 34.100021 -118.086207 292 5678ft 156kts
04-Nov-18 10:47 34.114252 -118.132690 292 4971ft 154kts
04-Nov-18 10:48 34.128507 -118.179193 291 4192ft 133kts
04-Nov-18 10:49 34.140991 -118.220371 290 4007ft 135kts
04-Nov-18 10:50 34.153689 -118.263982 273 3982ft 138kts
04-Nov-18 10:51 34.133956 -118.297962 228 3283ft 118kts
04-Nov-18 10:52 34.112095 -118.326493 227 3008ft 113kts
04-Nov-18 10:53 34.090482 -118.354544 227 2847ft 116kts
04-Nov-18 10:54 34.070655 -118.383314 230 1664ft 110kts
04-Nov-18 10:55 34.051917 -118.408312 226 1283ft 90kts
04-Nov-18 10:56 34.036309 -118.427002 223 758ft 70kts
04-Nov-18 10:57 34.022605 -118.443250 225 293ft 69kts
04-Nov-18 10:58 34.014980 -118.453191 329 138ft 0kts
04-Nov-18 10:59 34.015720 -118.452555 44 138ft 11kts
04-Nov-18 11:00 34.017850 -118.450578 70 138ft 2kts
04-Nov-18 11:01 34.017827 -118.450507 129 138ft 0kts
04-Nov-18 11:02 34.017827 -118.450507 129 138ft 0kts

Navigation Log

Ident Type
Flight plan parsing failed, navigation log unavailable